sensor_id;sensor_type;location;lat;lon;timestamp;temperature;humidity
19248;DHT22;9758;48.640;8.148;2024-02-28T00:01:59;9.70;56.90
19248;DHT22;9758;48.640;8.148;2024-02-28T00:04:26;9.70;56.90
19248;DHT22;9758;48.640;8.148;2024-02-28T00:06:53;9.70;56.90
19248;DHT22;9758;48.640;8.148;2024-02-28T00:09:20;9.70;56.90
19248;DHT22;9758;48.640;8.148;2024-02-28T00:11:48;9.70;56.90
19248;DHT22;9758;48.640;8.148;2024-02-28T00:14:14;9.70;56.90
19248;DHT22;9758;48.640;8.148;2024-02-28T00:16:41;9.80;56.90
19248;DHT22;9758;48.640;8.148;2024-02-28T00:19:08;9.80;56.90
19248;DHT22;9758;48.640;8.148;2024-02-28T00:21:34;9.70;56.90
19248;DHT22;9758;48.640;8.148;2024-02-28T00:24:01;9.70;56.90
19248;DHT22;9758;48.640;8.148;2024-02-28T00:26:28;9.70;56.90
19248;DHT22;9758;48.640;8.148;2024-02-28T00:28:56;9.70;56.90
19248;DHT22;9758;48.640;8.148;2024-02-28T00:31:23;9.70;56.90
19248;DHT22;9758;48.640;8.148;2024-02-28T00:33:49;9.70;56.90
19248;DHT22;9758;48.640;8.148;2024-02-28T00:36:16;9.70;56.90
19248;DHT22;9758;48.640;8.148;2024-02-28T00:38:43;9.70;56.90
19248;DHT22;9758;48.640;8.148;2024-02-28T00:41:10;9.80;57.00
19248;DHT22;9758;48.640;8.148;2024-02-28T00:44:02;9.80;57.00
19248;DHT22;9758;48.640;8.148;2024-02-28T00:46:29;9.70;57.00
19248;DHT22;9758;48.640;8.148;2024-02-28T00:48:55;9.70;57.00
19248;DHT22;9758;48.640;8.148;2024-02-28T00:51:22;9.70;56.90
19248;DHT22;9758;48.640;8.148;2024-02-28T00:53:49;9.70;57.00
19248;DHT22;9758;48.640;8.148;2024-02-28T00:56:16;9.70;57.00
19248;DHT22;9758;48.640;8.148;2024-02-28T00:58:44;9.60;57.00
19248;DHT22;9758;48.640;8.148;2024-02-28T01:01:12;9.60;56.90
19248;DHT22;9758;48.640;8.148;2024-02-28T01:03:38;9.60;57.00
19248;DHT22;9758;48.640;8.148;2024-02-28T01:06:05;9.60;57.10
19248;DHT22;9758;48.640;8.148;2024-02-28T01:08:32;9.60;57.10
19248;DHT22;9758;48.640;8.148;2024-02-28T01:10:59;9.60;57.10
19248;DHT22;9758;48.640;8.148;2024-02-28T01:13:25;9.60;57.10
19248;DHT22;9758;48.640;8.148;2024-02-28T01:15:52;9.60;57.10
19248;DHT22;9758;48.640;8.148;2024-02-28T01:18:20;9.60;57.10
19248;DHT22;9758;48.640;8.148;2024-02-28T01:20:47;9.60;57.10
19248;DHT22;9758;48.640;8.148;2024-02-28T01:23:16;9.50;57.10
19248;DHT22;9758;48.640;8.148;2024-02-28T01:25:42;9.50;57.10
19248;DHT22;9758;48.640;8.148;2024-02-28T01:28:09;9.50;57.10
19248;DHT22;9758;48.640;8.148;2024-02-28T01:30:36;9.50;57.10
19248;DHT22;9758;48.640;8.148;2024-02-28T01:33:03;9.50;57.10
19248;DHT22;9758;48.640;8.148;2024-02-28T01:35:31;9.50;57.10
19248;DHT22;9758;48.640;8.148;2024-02-28T01:37:58;9.40;57.10
19248;DHT22;9758;48.640;8.148;2024-02-28T01:40:24;9.40;57.10
19248;DHT22;9758;48.640;8.148;2024-02-28T01:42:51;9.40;57.10
19248;DHT22;9758;48.640;8.148;2024-02-28T01:45:18;9.40;57.10
19248;DHT22;9758;48.640;8.148;2024-02-28T01:47:44;9.40;57.10
19248;DHT22;9758;48.640;8.148;2024-02-28T01:50:11;9.40;57.10
19248;DHT22;9758;48.640;8.148;2024-02-28T01:52:40;9.40;57.10
19248;DHT22;9758;48.640;8.148;2024-02-28T01:55:08;9.30;57.10
19248;DHT22;9758;48.640;8.148;2024-02-28T01:57:37;9.30;57.10
19248;DHT22;9758;48.640;8.148;2024-02-28T02:00:05;9.30;57.00
19248;DHT22;9758;48.640;8.148;2024-02-28T02:02:33;9.20;57.00
19248;DHT22;9758;48.640;8.148;2024-02-28T02:05:00;9.20;57.00
19248;DHT22;9758;48.640;8.148;2024-02-28T02:07:27;9.10;57.00
19248;DHT22;9758;48.640;8.148;2024-02-28T02:09:54;9.10;57.00
19248;DHT22;9758;48.640;8.148;2024-02-28T02:12:21;9.00;57.00
19248;DHT22;9758;48.640;8.148;2024-02-28T02:14:48;9.00;57.10
19248;DHT22;9758;48.640;8.148;2024-02-28T02:17:15;8.90;57.00
19248;DHT22;9758;48.640;8.148;2024-02-28T02:19:41;8.90;57.70
19248;DHT22;9758;48.640;8.148;2024-02-28T02:22:09;8.80;57.10
19248;DHT22;9758;48.640;8.148;2024-02-28T02:24:37;8.80;57.10
19248;DHT22;9758;48.640;8.148;2024-02-28T02:27:04;8.70;57.10
19248;DHT22;9758;48.640;8.148;2024-02-28T02:29:31;8.70;57.10
19248;DHT22;9758;48.640;8.148;2024-02-28T02:31:58;8.60;57.70
19248;DHT22;9758;48.640;8.148;2024-02-28T02:34:25;8.60;57.10
19248;DHT22;9758;48.640;8.148;2024-02-28T02:36:51;8.50;57.10
19248;DHT22;9758;48.640;8.148;2024-02-28T02:39:18;8.50;57.10
19248;DHT22;9758;48.640;8.148;2024-02-28T02:41:46;8.50;57.20
19248;DHT22;9758;48.640;8.148;2024-02-28T02:44:13;8.50;57.30
19248;DHT22;9758;48.640;8.148;2024-02-28T02:46:40;8.40;57.30
19248;DHT22;9758;48.640;8.148;2024-02-28T02:49:07;8.40;57.30
19248;DHT22;9758;48.640;8.148;2024-02-28T02:51:33;8.40;57.40
19248;DHT22;9758;48.640;8.148;2024-02-28T02:54:00;8.40;57.40
19248;DHT22;9758;48.640;8.148;2024-02-28T02:56:27;8.40;57.40
19248;DHT22;9758;48.640;8.148;2024-02-28T02:58:55;8.40;57.40
19248;DHT22;9758;48.640;8.148;2024-02-28T03:01:22;8.40;57.40
19248;DHT22;9758;48.640;8.148;2024-02-28T03:03:48;8.40;57.40
19248;DHT22;9758;48.640;8.148;2024-02-28T03:06:15;8.40;57.50
19248;DHT22;9758;48.640;8.148;2024-02-28T03:08:42;8.40;57.50
19248;DHT22;9758;48.640;8.148;2024-02-28T03:11:08;8.40;57.50
19248;DHT22;9758;48.640;8.148;2024-02-28T03:13:36;8.40;57.50
19248;DHT22;9758;48.640;8.148;2024-02-28T03:16:05;8.40;57.50
19248;DHT22;9758;48.640;8.148;2024-02-28T03:18:32;8.40;57.60
19248;DHT22;9758;48.640;8.148;2024-02-28T03:20:59;8.40;57.60
19248;DHT22;9758;48.640;8.148;2024-02-28T03:23:25;8.50;57.60
19248;DHT22;9758;48.640;8.148;2024-02-28T03:25:52;8.50;57.60
19248;DHT22;9758;48.640;8.148;2024-02-28T03:28:19;8.50;57.60
19248;DHT22;9758;48.640;8.148;2024-02-28T03:30:46;8.50;57.60
19248;DHT22;9758;48.640;8.148;2024-02-28T03:33:14;8.50;57.60
19248;DHT22;9758;48.640;8.148;2024-02-28T03:35:41;8.50;57.60
19248;DHT22;9758;48.640;8.148;2024-02-28T03:38:08;8.50;57.60
19248;DHT22;9758;48.640;8.148;2024-02-28T03:40:34;8.60;57.60
19248;DHT22;9758;48.640;8.148;2024-02-28T03:43:01;8.60;57.60
19248;DHT22;9758;48.640;8.148;2024-02-28T03:45:28;8.60;57.60
19248;DHT22;9758;48.640;8.148;2024-02-28T03:47:55;8.60;57.60
19248;DHT22;9758;48.640;8.148;2024-02-28T03:50:24;8.60;57.60
19248;DHT22;9758;48.640;8.148;2024-02-28T03:52:50;8.70;58.30
19248;DHT22;9758;48.640;8.148;2024-02-28T03:55:17;8.70;57.70
19248;DHT22;9758;48.640;8.148;2024-02-28T03:57:47;8.70;57.70
19248;DHT22;9758;48.640;8.148;2024-02-28T04:00:14;8.70;57.60
19248;DHT22;9758;48.640;8.148;2024-02-28T04:02:41;8.70;57.60
19248;DHT22;9758;48.640;8.148;2024-02-28T04:05:08;8.70;57.60
19248;DHT22;9758;48.640;8.148;2024-02-28T04:07:36;8.70;57.60
19248;DHT22;9758;48.640;8.148;2024-02-28T04:10:04;8.70;57.60
19248;DHT22;9758;48.640;8.148;2024-02-28T04:12:31;8.60;57.60
19248;DHT22;9758;48.640;8.148;2024-02-28T04:14:58;8.70;57.50
19248;DHT22;9758;48.640;8.148;2024-02-28T04:17:25;8.60;57.50
19248;DHT22;9758;48.640;8.148;2024-02-28T04:19:51;8.60;57.40
19248;DHT22;9758;48.640;8.148;2024-02-28T04:22:17;8.50;57.40
19248;DHT22;9758;48.640;8.148;2024-02-28T04:24:45;8.50;57.40
19248;DHT22;9758;48.640;8.148;2024-02-28T04:27:12;8.50;57.40
19248;DHT22;9758;48.640;8.148;2024-02-28T04:29:39;8.40;57.40
19248;DHT22;9758;48.640;8.148;2024-02-28T04:32:06;8.40;57.50
19248;DHT22;9758;48.640;8.148;2024-02-28T04:34:32;8.30;57.50
19248;DHT22;9758;48.640;8.148;2024-02-28T04:36:59;8.30;57.50
19248;DHT22;9758;48.640;8.148;2024-02-28T04:39:26;8.20;57.50
19248;DHT22;9758;48.640;8.148;2024-02-28T04:41:54;8.20;57.50
19248;DHT22;9758;48.640;8.148;2024-02-28T04:44:20;8.20;57.50
19248;DHT22;9758;48.640;8.148;2024-02-28T04:46:47;8.10;57.50
19248;DHT22;9758;48.640;8.148;2024-02-28T04:49:14;8.00;57.50
19248;DHT22;9758;48.640;8.148;2024-02-28T04:51:40;8.00;57.60
19248;DHT22;9758;48.640;8.148;2024-02-28T04:54:07;8.00;57.50
19248;DHT22;9758;48.640;8.148;2024-02-28T04:56:39;8.00;57.50
19248;DHT22;9758;48.640;8.148;2024-02-28T04:59:07;7.90;57.50
19248;DHT22;9758;48.640;8.148;2024-02-28T05:01:34;7.90;57.50
19248;DHT22;9758;48.640;8.148;2024-02-28T05:04:05;7.80;57.40
19248;DHT22;9758;48.640;8.148;2024-02-28T05:06:32;7.80;57.50
19248;DHT22;9758;48.640;8.148;2024-02-28T05:08:59;7.70;57.40
19248;DHT22;9758;48.640;8.148;2024-02-28T05:11:25;7.70;57.50
19248;DHT22;9758;48.640;8.148;2024-02-28T05:13:52;7.60;57.50
19248;DHT22;9758;48.640;8.148;2024-02-28T05:16:20;7.60;57.50
19248;DHT22;9758;48.640;8.148;2024-02-28T05:18:47;7.50;57.50
19248;DHT22;9758;48.640;8.148;2024-02-28T05:21:14;7.50;57.50
19248;DHT22;9758;48.640;8.148;2024-02-28T05:23:40;7.40;57.50
19248;DHT22;9758;48.640;8.148;2024-02-28T05:26:07;7.40;57.60
19248;DHT22;9758;48.640;8.148;2024-02-28T05:28:34;7.40;57.60
19248;DHT22;9758;48.640;8.148;2024-02-28T05:31:02;7.30;57.50
19248;DHT22;9758;48.640;8.148;2024-02-28T05:33:32;7.30;57.60
19248;DHT22;9758;48.640;8.148;2024-02-28T05:35:58;7.20;57.60
19248;DHT22;9758;48.640;8.148;2024-02-28T05:38:25;7.20;57.60
19248;DHT22;9758;48.640;8.148;2024-02-28T05:40:52;7.20;57.60
19248;DHT22;9758;48.640;8.148;2024-02-28T05:43:19;7.10;57.60
19248;DHT22;9758;48.640;8.148;2024-02-28T05:45:45;7.10;57.60
19248;DHT22;9758;48.640;8.148;2024-02-28T05:48:12;7.10;57.70
19248;DHT22;9758;48.640;8.148;2024-02-28T05:50:40;7.00;57.60
19248;DHT22;9758;48.640;8.148;2024-02-28T05:53:07;7.00;57.60
19248;DHT22;9758;48.640;8.148;2024-02-28T05:55:34;7.00;57.70
19248;DHT22;9758;48.640;8.148;2024-02-28T05:58:02;7.00;57.80
19248;DHT22;9758;48.640;8.148;2024-02-28T06:00:39;7.00;57.90
19248;DHT22;9758;48.640;8.148;2024-02-28T06:03:05;7.00;57.90
19248;DHT22;9758;48.640;8.148;2024-02-28T06:05:32;7.00;58.00
19248;DHT22;9758;48.640;8.148;2024-02-28T06:08:00;7.00;57.90
19248;DHT22;9758;48.640;8.148;2024-02-28T06:10:27;7.00;57.90
19248;DHT22;9758;48.640;8.148;2024-02-28T06:12:54;7.10;57.90
19248;DHT22;9758;48.640;8.148;2024-02-28T06:15:20;7.10;57.80
19248;DHT22;9758;48.640;8.148;2024-02-28T06:17:47;7.00;57.70
19248;DHT22;9758;48.640;8.148;2024-02-28T06:23:20;7.00;57.80
19248;DHT22;9758;48.640;8.148;2024-02-28T06:25:47;7.00;57.70
19248;DHT22;9758;48.640;8.148;2024-02-28T06:28:13;7.00;57.80
19248;DHT22;9758;48.640;8.148;2024-02-28T06:30:40;7.00;57.80
19248;DHT22;9758;48.640;8.148;2024-02-28T06:33:07;7.00;57.80
19248;DHT22;9758;48.640;8.148;2024-02-28T06:35:34;6.90;57.80
19248;DHT22;9758;48.640;8.148;2024-02-28T06:38:01;6.90;57.80
19248;DHT22;9758;48.640;8.148;2024-02-28T06:40:29;6.90;57.80
19248;DHT22;9758;48.640;8.148;2024-02-28T06:42:56;6.90;57.90
19248;DHT22;9758;48.640;8.148;2024-02-28T06:45:23;6.90;57.80
19248;DHT22;9758;48.640;8.148;2024-02-28T06:47:50;6.90;57.80
19248;DHT22;9758;48.640;8.148;2024-02-28T06:50:16;7.00;57.90
19248;DHT22;9758;48.640;8.148;2024-02-28T06:52:43;6.90;57.90
19248;DHT22;9758;48.640;8.148;2024-02-28T06:55:10;6.90;57.80
19248;DHT22;9758;48.640;8.148;2024-02-28T06:57:40;6.90;57.80
19248;DHT22;9758;48.640;8.148;2024-02-28T07:00:09;7.00;57.90
19248;DHT22;9758;48.640;8.148;2024-02-28T07:02:37;6.90;57.90
19248;DHT22;9758;48.640;8.148;2024-02-28T07:05:04;7.00;58.00
19248;DHT22;9758;48.640;8.148;2024-02-28T07:07:32;7.00;57.90
19248;DHT22;9758;48.640;8.148;2024-02-28T07:09:58;7.00;57.90
19248;DHT22;9758;48.640;8.148;2024-02-28T07:12:25;7.00;58.00
19248;DHT22;9758;48.640;8.148;2024-02-28T07:14:53;7.00;57.90
19248;DHT22;9758;48.640;8.148;2024-02-28T07:17:21;7.00;58.00
19248;DHT22;9758;48.640;8.148;2024-02-28T07:19:47;7.00;57.90
19248;DHT22;9758;48.640;8.148;2024-02-28T07:22:14;7.00;58.00
19248;DHT22;9758;48.640;8.148;2024-02-28T07:24:41;7.10;58.10
19248;DHT22;9758;48.640;8.148;2024-02-28T07:27:08;7.20;58.20
19248;DHT22;9758;48.640;8.148;2024-02-28T07:29:36;7.20;58.30
19248;DHT22;9758;48.640;8.148;2024-02-28T07:32:04;7.30;58.30
19248;DHT22;9758;48.640;8.148;2024-02-28T07:34:31;7.40;58.40
19248;DHT22;9758;48.640;8.148;2024-02-28T07:36:59;7.60;58.50
19248;DHT22;9758;48.640;8.148;2024-02-28T07:39:26;7.70;58.50
19248;DHT22;9758;48.640;8.148;2024-02-28T07:41:52;7.80;58.40
19248;DHT22;9758;48.640;8.148;2024-02-28T07:44:19;8.00;58.50
19248;DHT22;9758;48.640;8.148;2024-02-28T07:46:46;8.10;58.40
19248;DHT22;9758;48.640;8.148;2024-02-28T07:49:14;8.20;58.30
19248;DHT22;9758;48.640;8.148;2024-02-28T07:51:41;8.30;58.10
19248;DHT22;9758;48.640;8.148;2024-02-28T07:54:08;8.40;58.00
19248;DHT22;9758;48.640;8.148;2024-02-28T07:56:35;8.40;58.00
19248;DHT22;9758;48.640;8.148;2024-02-28T07:59:01;8.40;57.90
19248;DHT22;9758;48.640;8.148;2024-02-28T08:01:28;8.50;58.00
19248;DHT22;9758;48.640;8.148;2024-02-28T08:03:56;8.40;57.90
19248;DHT22;9758;48.640;8.148;2024-02-28T08:06:24;8.40;58.00
19248;DHT22;9758;48.640;8.148;2024-02-28T08:08:51;8.50;58.20
19248;DHT22;9758;48.640;8.148;2024-02-28T08:11:17;8.50;58.00
19248;DHT22;9758;48.640;8.148;2024-02-28T08:13:44;8.50;58.00
19248;DHT22;9758;48.640;8.148;2024-02-28T08:16:11;8.50;58.00
19248;DHT22;9758;48.640;8.148;2024-02-28T08:18:37;8.50;58.00
19248;DHT22;9758;48.640;8.148;2024-02-28T08:21:04;8.60;58.10
19248;DHT22;9758;48.640;8.148;2024-02-28T08:23:32;8.70;58.10
19248;DHT22;9758;48.640;8.148;2024-02-28T08:25:59;8.70;58.00
19248;DHT22;9758;48.640;8.148;2024-02-28T08:28:26;8.70;58.00
19248;DHT22;9758;48.640;8.148;2024-02-28T08:30:52;8.70;57.90
19248;DHT22;9758;48.640;8.148;2024-02-28T08:33:19;8.70;57.90
19248;DHT22;9758;48.640;8.148;2024-02-28T08:35:45;8.70;58.10
19248;DHT22;9758;48.640;8.148;2024-02-28T08:38:12;8.80;58.20
19248;DHT22;9758;48.640;8.148;2024-02-28T08:40:40;8.80;58.20
19248;DHT22;9758;48.640;8.148;2024-02-28T08:43:06;8.80;58.10
19248;DHT22;9758;48.640;8.148;2024-02-28T08:45:33;8.80;58.10
19248;DHT22;9758;48.640;8.148;2024-02-28T08:48:01;8.80;58.10
19248;DHT22;9758;48.640;8.148;2024-02-28T08:50:28;8.80;58.10
19248;DHT22;9758;48.640;8.148;2024-02-28T08:52:55;8.80;58.20
19248;DHT22;9758;48.640;8.148;2024-02-28T08:55:22;8.90;58.30
19248;DHT22;9758;48.640;8.148;2024-02-28T08:57:50;8.90;58.30
19248;DHT22;9758;48.640;8.148;2024-02-28T09:00:17;9.00;58.30
19248;DHT22;9758;48.640;8.148;2024-02-28T09:02:44;9.10;58.20
19248;DHT22;9758;48.640;8.148;2024-02-28T09:05:10;9.20;58.10
19248;DHT22;9758;48.640;8.148;2024-02-28T09:07:37;9.30;58.10
19248;DHT22;9758;48.640;8.148;2024-02-28T09:10:04;9.40;58.10
19248;DHT22;9758;48.640;8.148;2024-02-28T09:12:31;9.50;58.10
19248;DHT22;9758;48.640;8.148;2024-02-28T09:14:59;9.60;58.00
19248;DHT22;9758;48.640;8.148;2024-02-28T09:17:26;9.70;58.00
19248;DHT22;9758;48.640;8.148;2024-02-28T09:19:53;9.80;57.90
19248;DHT22;9758;48.640;8.148;2024-02-28T09:22:20;9.90;57.90
19248;DHT22;9758;48.640;8.148;2024-02-28T09:24:49;10.00;57.80
19248;DHT22;9758;48.640;8.148;2024-02-28T09:27:16;10.10;57.70
19248;DHT22;9758;48.640;8.148;2024-02-28T09:29:43;10.10;57.60
19248;DHT22;9758;48.640;8.148;2024-02-28T09:32:11;10.10;57.60
19248;DHT22;9758;48.640;8.148;2024-02-28T09:34:40;10.20;57.70
19248;DHT22;9758;48.640;8.148;2024-02-28T09:37:06;10.30;57.50
19248;DHT22;9758;48.640;8.148;2024-02-28T09:39:33;10.20;57.60
19248;DHT22;9758;48.640;8.148;2024-02-28T09:42:00;10.20;57.60
19248;DHT22;9758;48.640;8.148;2024-02-28T09:44:27;10.10;57.70
19248;DHT22;9758;48.640;8.148;2024-02-28T09:46:53;10.10;57.60
19248;DHT22;9758;48.640;8.148;2024-02-28T09:49:22;10.00;57.70
19248;DHT22;9758;48.640;8.148;2024-02-28T09:51:52;10.00;57.70
19248;DHT22;9758;48.640;8.148;2024-02-28T09:54:19;9.90;57.70
19248;DHT22;9758;48.640;8.148;2024-02-28T09:56:47;9.90;57.70
19248;DHT22;9758;48.640;8.148;2024-02-28T09:59:15;9.90;57.70
19248;DHT22;9758;48.640;8.148;2024-02-28T10:01:43;9.90;57.60
19248;DHT22;9758;48.640;8.148;2024-02-28T10:04:12;9.80;57.70
19248;DHT22;9758;48.640;8.148;2024-02-28T10:06:41;9.80;57.80
19248;DHT22;9758;48.640;8.148;2024-02-28T10:09:08;9.80;57.90
19248;DHT22;9758;48.640;8.148;2024-02-28T10:11:36;9.90;57.90
19248;DHT22;9758;48.640;8.148;2024-02-28T10:14:03;10.00;57.90
19248;DHT22;9758;48.640;8.148;2024-02-28T10:16:30;10.10;57.90
19248;DHT22;9758;48.640;8.148;2024-02-28T10:18:56;10.30;57.90
19248;DHT22;9758;48.640;8.148;2024-02-28T10:21:23;10.30;57.70
19248;DHT22;9758;48.640;8.148;2024-02-28T10:23:53;10.40;57.60
19248;DHT22;9758;48.640;8.148;2024-02-28T10:26:19;10.30;57.60
19248;DHT22;9758;48.640;8.148;2024-02-28T10:28:46;10.40;57.70
19248;DHT22;9758;48.640;8.148;2024-02-28T10:31:14;10.40;57.70
19248;DHT22;9758;48.640;8.148;2024-02-28T10:33:41;10.40;57.60
19248;DHT22;9758;48.640;8.148;2024-02-28T10:36:09;10.40;57.70
19248;DHT22;9758;48.640;8.148;2024-02-28T10:38:37;10.50;57.90
19248;DHT22;9758;48.640;8.148;2024-02-28T10:41:05;10.60;57.90
19248;DHT22;9758;48.640;8.148;2024-02-28T10:43:32;10.70;57.80
19248;DHT22;9758;48.640;8.148;2024-02-28T10:46:00;10.80;57.50
19248;DHT22;9758;48.640;8.148;2024-02-28T10:48:27;10.80;57.30
19248;DHT22;9758;48.640;8.148;2024-02-28T10:50:54;10.80;57.30
19248;DHT22;9758;48.640;8.148;2024-02-28T10:53:22;10.80;57.40
19248;DHT22;9758;48.640;8.148;2024-02-28T10:55:51;10.90;58.00
19248;DHT22;9758;48.640;8.148;2024-02-28T10:58:24;10.90;57.40
19248;DHT22;9758;48.640;8.148;2024-02-28T11:00:53;10.90;57.40
19248;DHT22;9758;48.640;8.148;2024-02-28T11:03:20;11.00;57.50
19248;DHT22;9758;48.640;8.148;2024-02-28T11:05:47;11.10;57.50
19248;DHT22;9758;48.640;8.148;2024-02-28T11:08:21;11.20;57.30
19248;DHT22;9758;48.640;8.148;2024-02-28T11:10:55;11.30;57.10
19248;DHT22;9758;48.640;8.148;2024-02-28T11:13:23;11.30;57.00
19248;DHT22;9758;48.640;8.148;2024-02-28T11:15:50;11.30;56.90
19248;DHT22;9758;48.640;8.148;2024-02-28T11:18:17;11.30;57.10
19248;DHT22;9758;48.640;8.148;2024-02-28T11:20:44;11.30;57.00
19248;DHT22;9758;48.640;8.148;2024-02-28T11:23:13;11.30;56.90
19248;DHT22;9758;48.640;8.148;2024-02-28T11:25:41;11.20;57.00
19248;DHT22;9758;48.640;8.148;2024-02-28T11:28:08;11.30;57.10
19248;DHT22;9758;48.640;8.148;2024-02-28T11:30:36;11.30;57.10
19248;DHT22;9758;48.640;8.148;2024-02-28T11:33:03;11.40;57.10
19248;DHT22;9758;48.640;8.148;2024-02-28T11:35:30;11.40;57.10
19248;DHT22;9758;48.640;8.148;2024-02-28T11:37:58;11.50;56.90
19248;DHT22;9758;48.640;8.148;2024-02-28T11:40:24;11.60;56.70
19248;DHT22;9758;48.640;8.148;2024-02-28T11:42:51;11.60;56.70
19248;DHT22;9758;48.640;8.148;2024-02-28T11:45:18;11.50;56.60
19248;DHT22;9758;48.640;8.148;2024-02-28T11:47:46;11.50;56.70
19248;DHT22;9758;48.640;8.148;2024-02-28T11:50:13;11.60;56.80
19248;DHT22;9758;48.640;8.148;2024-02-28T11:52:44;11.60;56.70
19248;DHT22;9758;48.640;8.148;2024-02-28T11:55:10;11.70;57.00
19248;DHT22;9758;48.640;8.148;2024-02-28T11:57:37;11.80;56.90
19248;DHT22;9758;48.640;8.148;2024-02-28T12:00:05;11.90;56.60
19248;DHT22;9758;48.640;8.148;2024-02-28T12:02:32;11.90;56.60
19248;DHT22;9758;48.640;8.148;2024-02-28T12:05:04;12.00;56.70
19248;DHT22;9758;48.640;8.148;2024-02-28T12:07:37;12.00;56.70
19248;DHT22;9758;48.640;8.148;2024-02-28T12:10:05;12.10;56.50
19248;DHT22;9758;48.640;8.148;2024-02-28T12:12:34;12.10;56.50
19248;DHT22;9758;48.640;8.148;2024-02-28T12:15:01;12.10;56.50
19248;DHT22;9758;48.640;8.148;2024-02-28T12:17:29;12.10;56.40
19248;DHT22;9758;48.640;8.148;2024-02-28T12:19:55;12.10;56.60
19248;DHT22;9758;48.640;8.148;2024-02-28T12:22:24;12.10;56.70
19248;DHT22;9758;48.640;8.148;2024-02-28T12:24:50;12.20;56.60
19248;DHT22;9758;48.640;8.148;2024-02-28T12:27:17;12.30;56.60
19248;DHT22;9758;48.640;8.148;2024-02-28T12:29:44;12.40;56.60
19248;DHT22;9758;48.640;8.148;2024-02-28T12:32:10;12.50;56.50
19248;DHT22;9758;48.640;8.148;2024-02-28T12:34:37;12.50;56.30
19248;DHT22;9758;48.640;8.148;2024-02-28T12:37:04;12.50;56.30
19248;DHT22;9758;48.640;8.148;2024-02-28T12:39:32;12.50;56.30
19248;DHT22;9758;48.640;8.148;2024-02-28T12:41:59;12.50;56.10
19248;DHT22;9758;48.640;8.148;2024-02-28T12:44:26;12.50;56.00
19248;DHT22;9758;48.640;8.148;2024-02-28T12:46:53;12.50;56.30
19248;DHT22;9758;48.640;8.148;2024-02-28T12:49:19;12.60;56.60
19248;DHT22;9758;48.640;8.148;2024-02-28T12:51:46;12.60;56.20
19248;DHT22;9758;48.640;8.148;2024-02-28T12:54:14;12.60;56.20
19248;DHT22;9758;48.640;8.148;2024-02-28T12:56:42;12.60;56.20
19248;DHT22;9758;48.640;8.148;2024-02-28T12:59:10;12.70;56.00
19248;DHT22;9758;48.640;8.148;2024-02-28T13:01:37;12.70;56.00
19248;DHT22;9758;48.640;8.148;2024-02-28T13:04:04;12.70;56.20
19248;DHT22;9758;48.640;8.148;2024-02-28T13:06:31;12.70;56.00
19248;DHT22;9758;48.640;8.148;2024-02-28T13:08:57;12.70;56.20
19248;DHT22;9758;48.640;8.148;2024-02-28T13:11:24;12.80;56.00
19248;DHT22;9758;48.640;8.148;2024-02-28T13:13:52;12.80;55.70
19248;DHT22;9758;48.640;8.148;2024-02-28T13:16:20;12.90;55.90
19248;DHT22;9758;48.640;8.148;2024-02-28T13:18:47;12.90;56.10
19248;DHT22;9758;48.640;8.148;2024-02-28T13:21:21;13.00;56.10
19248;DHT22;9758;48.640;8.148;2024-02-28T13:23:48;13.00;56.00
19248;DHT22;9758;48.640;8.148;2024-02-28T13:26:15;13.10;55.90
19248;DHT22;9758;48.640;8.148;2024-02-28T13:28:44;13.20;56.00
19248;DHT22;9758;48.640;8.148;2024-02-28T13:31:12;13.20;55.80
19248;DHT22;9758;48.640;8.148;2024-02-28T13:33:39;13.30;55.90
19248;DHT22;9758;48.640;8.148;2024-02-28T13:36:07;13.40;55.90
19248;DHT22;9758;48.640;8.148;2024-02-28T13:38:34;13.50;55.50
19248;DHT22;9758;48.640;8.148;2024-02-28T13:41:01;13.50;55.10
19248;DHT22;9758;48.640;8.148;2024-02-28T13:43:29;13.50;55.40
19248;DHT22;9758;48.640;8.148;2024-02-28T13:45:55;13.50;55.30
19248;DHT22;9758;48.640;8.148;2024-02-28T13:48:27;13.50;55.10
19248;DHT22;9758;48.640;8.148;2024-02-28T13:50:55;13.50;55.20
19248;DHT22;9758;48.640;8.148;2024-02-28T13:53:22;13.40;55.00
19248;DHT22;9758;48.640;8.148;2024-02-28T13:55:50;13.40;55.30
19248;DHT22;9758;48.640;8.148;2024-02-28T13:58:17;13.40;55.50
19248;DHT22;9758;48.640;8.148;2024-02-28T14:00:44;13.50;55.70
19248;DHT22;9758;48.640;8.148;2024-02-28T14:03:12;13.60;56.30
19248;DHT22;9758;48.640;8.148;2024-02-28T14:05:40;13.70;55.10
19248;DHT22;9758;48.640;8.148;2024-02-28T14:08:08;13.80;55.30
19248;DHT22;9758;48.640;8.148;2024-02-28T14:10:37;13.80;55.00
19248;DHT22;9758;48.640;8.148;2024-02-28T14:13:05;13.80;55.00
19248;DHT22;9758;48.640;8.148;2024-02-28T14:15:32;13.80;54.40
19248;DHT22;9758;48.640;8.148;2024-02-28T14:18:01;13.80;54.30
19248;DHT22;9758;48.640;8.148;2024-02-28T14:20:28;13.80;54.90
19248;DHT22;9758;48.640;8.148;2024-02-28T14:22:56;13.80;54.70
19248;DHT22;9758;48.640;8.148;2024-02-28T14:25:23;13.70;55.00
19248;DHT22;9758;48.640;8.148;2024-02-28T14:27:50;13.80;54.50
19248;DHT22;9758;48.640;8.148;2024-02-28T14:30:17;13.70;54.70
19248;DHT22;9758;48.640;8.148;2024-02-28T14:32:44;13.70;54.90
19248;DHT22;9758;48.640;8.148;2024-02-28T14:35:12;13.80;54.90
19248;DHT22;9758;48.640;8.148;2024-02-28T14:37:39;13.80;54.80
19248;DHT22;9758;48.640;8.148;2024-02-28T14:40:08;13.90;54.90
19248;DHT22;9758;48.640;8.148;2024-02-28T14:42:36;14.00;54.60
19248;DHT22;9758;48.640;8.148;2024-02-28T14:45:04;14.10;54.80
19248;DHT22;9758;48.640;8.148;2024-02-28T14:47:31;14.10;54.70
19248;DHT22;9758;48.640;8.148;2024-02-28T14:49:59;14.20;54.90
19248;DHT22;9758;48.640;8.148;2024-02-28T14:52:26;14.30;54.70
19248;DHT22;9758;48.640;8.148;2024-02-28T14:54:53;14.40;54.40
19248;DHT22;9758;48.640;8.148;2024-02-28T14:57:21;14.50;55.00
19248;DHT22;9758;48.640;8.148;2024-02-28T14:59:47;14.50;54.40
19248;DHT22;9758;48.640;8.148;2024-02-28T15:02:14;14.60;54.20
19248;DHT22;9758;48.640;8.148;2024-02-28T15:04:41;14.60;54.00
19248;DHT22;9758;48.640;8.148;2024-02-28T15:07:08;14.60;54.20
19248;DHT22;9758;48.640;8.148;2024-02-28T15:09:34;14.60;53.70
19248;DHT22;9758;48.640;8.148;2024-02-28T15:12:02;14.50;53.30
19248;DHT22;9758;48.640;8.148;2024-02-28T15:14:30;14.20;53.40
19248;DHT22;9758;48.640;8.148;2024-02-28T15:16:57;14.10;53.90
19248;DHT22;9758;48.640;8.148;2024-02-28T15:19:24;14.00;54.10
19248;DHT22;9758;48.640;8.148;2024-02-28T15:21:52;14.00;54.00
19248;DHT22;9758;48.640;8.148;2024-02-28T15:24:18;13.90;54.10
19248;DHT22;9758;48.640;8.148;2024-02-28T15:26:45;14.00;54.20
19248;DHT22;9758;48.640;8.148;2024-02-28T15:29:12;13.90;54.10
19248;DHT22;9758;48.640;8.148;2024-02-28T15:31:40;13.90;53.90
19248;DHT22;9758;48.640;8.148;2024-02-28T15:34:07;13.90;54.00
19248;DHT22;9758;48.640;8.148;2024-02-28T15:36:33;13.90;54.20
19248;DHT22;9758;48.640;8.148;2024-02-28T15:39:00;13.90;53.90
19248;DHT22;9758;48.640;8.148;2024-02-28T15:41:28;13.80;53.80
19248;DHT22;9758;48.640;8.148;2024-02-28T15:43:55;13.80;54.10
19248;DHT22;9758;48.640;8.148;2024-02-28T15:46:22;13.80;53.90
19248;DHT22;9758;48.640;8.148;2024-02-28T15:48:50;13.90;54.00
19248;DHT22;9758;48.640;8.148;2024-02-28T15:51:17;13.90;53.80
19248;DHT22;9758;48.640;8.148;2024-02-28T15:53:44;13.80;53.60
19248;DHT22;9758;48.640;8.148;2024-02-28T15:56:10;13.80;53.80
19248;DHT22;9758;48.640;8.148;2024-02-28T15:58:37;13.80;53.80